createdAt,value
2024-01-16T00:18:14.385Z,61.07
2024-01-16T00:20:58.642Z,60.56
2024-01-16T00:24:46.509Z,61.30
2024-01-16T00:27:19.616Z,61.39
2024-01-16T00:30:59.357Z,60.97
2024-01-16T00:49:39.829Z,61.89
2024-01-16T00:52:41.957Z,60.40
2024-01-16T00:59:47.492Z,61.53
2024-01-16T01:07:14.685Z,61.27
2024-01-16T02:02:21.256Z,59.71
2024-01-16T02:13:58.485Z,58.59
2024-01-16T02:16:46.805Z,59.38
2024-01-16T02:26:14.938Z,58.91
2024-01-16T02:32:55.159Z,59.43
2024-01-16T05:20:13.527Z,59.41
2024-01-16T05:31:16.031Z,59.21
2024-01-16T07:23:04.097Z,58.21
2024-01-16T07:26:12.902Z,57.58
2024-01-16T07:32:16.569Z,57.89
2024-01-16T07:35:02.544Z,58.14
2024-01-16T07:37:32.303Z,58.16
2024-01-16T07:40:02.842Z,57.91
2024-01-16T07:42:35.395Z,57.77
2024-01-16T07:45:06.019Z,57.86
2024-01-16T07:47:36.566Z,58.10
2024-01-16T07:50:08.519Z,57.80
2024-01-16T07:52:38.106Z,57.72
2024-01-16T07:55:09.518Z,58.20
2024-01-16T07:57:38.778Z,58.03
2024-01-16T08:00:13.062Z,57.80
2024-01-16T08:02:43.052Z,58.36
2024-01-16T08:05:12.440Z,57.58
2024-01-16T08:07:41.806Z,57.38
2024-01-16T08:10:14.786Z,57.86
2024-01-16T08:12:45.790Z,57.15
2024-01-16T08:15:14.744Z,58.20
2024-01-16T08:17:44.368Z,58.07
2024-01-16T08:20:14.419Z,57.82
2024-01-16T08:22:43.868Z,57.51
2024-01-16T08:25:14.192Z,57.93
2024-01-16T08:27:44.943Z,57.78
2024-01-16T08:30:14.663Z,57.82
2024-01-16T08:32:44.169Z,58.08
2024-01-16T08:35:13.336Z,57.75
2024-01-16T08:37:42.651Z,58.45
2024-01-16T08:40:13.001Z,56.59
2024-01-16T08:42:43.830Z,58.10
2024-01-16T08:45:12.981Z,58.04
2024-01-16T08:47:42.370Z,57.92
2024-01-16T08:50:11.575Z,55.63
2024-01-16T08:52:43.442Z,57.91
2024-01-16T08:55:12.572Z,56.74
2024-01-16T08:57:43.492Z,57.96
2024-01-16T09:00:13.710Z,57.63
2024-01-16T09:02:43.108Z,57.16
2024-01-16T09:05:13.584Z,56.73
2024-01-16T09:07:43.155Z,58.33
2024-01-16T09:10:12.901Z,55.20
2024-01-16T09:12:43.686Z,57.87
2024-01-16T09:15:13.241Z,57.16
2024-01-16T09:17:42.753Z,56.53
2024-01-16T09:20:13.353Z,57.63
2024-01-16T09:23:05.573Z,57.28
2024-01-16T09:31:09.395Z,57.45
2024-01-16T09:33:12.273Z,55.31
2024-01-16T09:35:42.533Z,57.71
2024-01-16T09:38:23.588Z,57.66
2024-01-16T09:41:01.380Z,55.31
2024-01-16T09:51:24.401Z,57.02
2024-01-16T09:57:19.407Z,55.11
2024-01-16T10:03:36.196Z,57.16
2024-01-16T10:06:06.544Z,56.98
2024-01-16T10:09:08.736Z,56.49
2024-01-16T10:11:42.839Z,56.54
2024-01-16T10:25:58.851Z,56.75
2024-01-16T10:28:58.705Z,56.56
2024-01-16T10:31:41.661Z,54.47
2024-01-16T10:51:22.205Z,55.13
2024-01-16T10:53:51.785Z,55.35
2024-01-16T10:56:22.589Z,54.59
2024-01-16T10:58:57.057Z,55.49
2024-01-16T11:01:26.245Z,54.54
2024-01-16T11:03:58.551Z,54.88
2024-01-16T11:06:33.167Z,55.39
2024-01-16T11:09:06.856Z,54.75
2024-01-16T11:11:39.987Z,52.79
2024-01-16T11:14:28.536Z,51.83
2024-01-16T11:16:57.673Z,54.47
2024-01-16T11:19:53.400Z,51.33
2024-01-16T11:22:32.206Z,54.09
2024-01-16T11:25:19.363Z,53.38
2024-01-16T11:27:53.704Z,54.67
2024-01-16T11:30:37.360Z,54.25
2024-01-16T11:33:14.705Z,54.22
2024-01-16T11:35:49.836Z,53.96
2024-01-16T11:38:22.996Z,54.58
2024-01-16T11:41:01.715Z,51.88
2024-01-16T11:43:47.504Z,52.25
2024-01-16T11:46:18.906Z,53.86
2024-01-16T11:48:49.572Z,53.76
2024-01-16T11:52:05.035Z,52.47
2024-01-16T11:54:53.595Z,53.57
2024-01-16T11:57:51.638Z,54.38
2024-01-16T12:00:22.681Z,51.90
2024-01-16T12:02:56.472Z,53.88
2024-01-16T12:05:27.731Z,53.38
2024-01-16T12:07:59.710Z,53.22
2024-01-16T12:10:28.917Z,54.30
2024-01-16T12:13:05.478Z,53.47
2024-01-16T12:15:37.353Z,54.02
2024-01-16T12:18:19.508Z,52.68
2024-01-16T12:20:57.060Z,53.57
2024-01-16T12:23:28.525Z,53.73
2024-01-16T12:26:03.776Z,53.56
2024-01-16T12:28:35.529Z,53.79
2024-01-16T12:31:06.629Z,53.76
2024-01-16T12:33:36.393Z,53.68
2024-01-16T12:36:06.829Z,54.29
2024-01-16T12:38:37.432Z,53.87
2024-01-16T12:41:08.014Z,54.07
2024-01-16T12:43:40.114Z,54.25
2024-01-16T12:46:17.880Z,53.97
2024-01-16T12:49:00.076Z,53.89
2024-01-16T12:51:32.738Z,54.50
2024-01-16T12:54:14.849Z,54.66
2024-01-16T12:56:44.130Z,54.14
2024-01-16T12:59:15.281Z,54.08
2024-01-16T13:01:48.124Z,54.67
2024-01-16T13:04:31.525Z,54.51
2024-01-16T13:11:12.449Z,54.79
2024-01-16T13:13:42.829Z,55.37
2024-01-16T13:16:13.199Z,53.95
2024-01-16T13:18:42.551Z,54.75
2024-01-16T13:21:17.786Z,54.87
2024-01-16T13:23:50.163Z,54.40
2024-01-16T13:26:20.888Z,54.92
2024-01-16T13:28:50.272Z,55.05
2024-01-16T13:31:20.767Z,54.14
2024-01-16T13:33:50.416Z,54.89
2024-01-16T13:36:39.275Z,54.32
2024-01-16T13:39:14.520Z,54.79
2024-01-16T13:41:44.851Z,54.28
2024-01-16T13:44:16.730Z,54.16
2024-01-16T13:46:57.555Z,52.29
2024-01-16T13:49:35.718Z,54.11
2024-01-16T13:52:05.197Z,53.60
2024-01-16T13:54:34.644Z,53.97
2024-01-16T13:57:08.441Z,54.03
2024-01-16T13:59:40.503Z,53.51
2024-01-16T14:02:11.150Z,53.22
2024-01-16T14:04:40.699Z,53.83
2024-01-16T14:07:13.270Z,53.54
2024-01-16T14:09:45.295Z,53.42
2024-01-16T14:12:15.909Z,53.54
2024-01-16T14:14:45.640Z,53.12
2024-01-16T14:17:16.499Z,53.51
2024-01-16T14:19:46.107Z,53.29
2024-01-16T14:22:15.236Z,53.23
2024-01-16T14:24:47.867Z,53.35
2024-01-16T14:27:16.941Z,53.56
2024-01-16T14:29:46.347Z,53.13
2024-01-16T14:32:16.852Z,53.11
2024-01-16T14:34:46.510Z,53.55
2024-01-16T14:37:18.083Z,53.23
2024-01-16T14:39:47.473Z,53.20
2024-01-16T14:42:16.492Z,52.97
2024-01-16T14:44:46.103Z,53.11
2024-01-16T14:47:20.901Z,53.29
2024-01-16T14:49:50.539Z,53.05
2024-01-16T14:52:20.294Z,52.96
2024-01-16T14:54:59.346Z,53.24
2024-01-16T14:57:28.666Z,53.23
2024-01-16T15:00:01.030Z,53.22
2024-01-16T15:02:49.291Z,53.00
2024-01-16T15:05:20.867Z,53.03
2024-01-16T15:07:53.962Z,53.24
2024-01-16T15:10:25.838Z,53.21
2024-01-16T15:12:54.822Z,53.11
2024-01-16T15:15:24.848Z,53.16
2024-01-16T15:17:58.556Z,53.50
2024-01-16T15:20:29.592Z,53.27
2024-01-16T15:22:58.659Z,53.40
2024-01-16T15:25:28.249Z,53.01
2024-01-16T15:27:57.342Z,52.97
2024-01-16T15:30:32.854Z,53.10
2024-01-16T15:33:02.120Z,53.06
2024-01-16T15:35:33.449Z,53.41
2024-01-16T15:38:04.831Z,53.35
2024-01-16T15:41:49.054Z,53.08
2024-01-16T15:43:51.779Z,53.29
2024-01-16T15:50:25.358Z,53.31
2024-01-16T15:52:56.343Z,53.28
2024-01-16T15:55:25.447Z,53.09
2024-01-16T15:57:55.865Z,53.20
2024-01-16T16:00:24.913Z,53.21
2024-01-16T16:02:54.586Z,53.51
2024-01-16T16:05:25.087Z,53.45
2024-01-16T16:07:54.733Z,53.44
2024-01-16T16:10:26.413Z,53.54
2024-01-16T16:12:56.093Z,53.08
2024-01-16T16:15:25.252Z,53.13
2024-01-16T16:17:57.686Z,53.30
2024-01-16T16:20:27.649Z,53.25
2024-01-16T16:22:57.284Z,53.41
2024-01-16T16:25:27.696Z,53.37
2024-01-16T16:27:57.349Z,53.42
2024-01-16T16:31:30.502Z,53.08
2024-01-16T16:34:01.646Z,53.13
2024-01-16T16:36:31.084Z,53.19
2024-01-16T16:39:00.842Z,53.32
2024-01-16T16:41:31.252Z,52.96
2024-01-16T16:44:03.300Z,53.22
2024-01-16T16:46:39.895Z,52.95
2024-01-16T16:49:10.693Z,53.15
2024-01-16T16:51:59.483Z,53.00
2024-01-16T16:54:32.257Z,53.23
2024-01-16T16:57:04.693Z,52.97
2024-01-16T16:59:34.166Z,53.03
2024-01-16T17:02:03.140Z,53.14
2024-01-16T17:04:36.261Z,52.93
2024-01-16T17:07:11.736Z,53.20
2024-01-16T17:09:43.171Z,53.21
2024-01-16T17:12:14.384Z,52.85
2024-01-16T17:14:43.774Z,53.40
2024-01-16T17:17:12.924Z,53.07
2024-01-16T17:19:42.962Z,52.95
2024-01-16T17:22:12.453Z,53.22
2024-01-16T17:24:41.853Z,53.23
2024-01-16T17:27:11.587Z,53.41
2024-01-16T17:29:42.472Z,53.25
2024-01-16T17:32:22.368Z,53.19
2024-01-16T17:36:07.419Z,53.03
2024-01-16T17:43:04.457Z,52.99
2024-01-16T17:45:51.468Z,52.98
2024-01-16T17:48:33.224Z,52.92
2024-01-16T17:51:10.744Z,52.94
2024-01-16T17:53:47.132Z,53.34
2024-01-16T17:56:19.587Z,52.92
2024-01-16T17:58:48.725Z,53.37
2024-01-16T18:01:19.550Z,53.40
2024-01-16T18:03:49.249Z,53.28
2024-01-16T18:06:23.751Z,52.99
2024-01-16T18:08:59.828Z,53.05
2024-01-16T18:11:29.446Z,53.27
2024-01-16T18:13:59.552Z,53.12
2024-01-16T18:16:31.581Z,53.28
2024-01-16T18:19:00.817Z,53.57
2024-01-16T18:21:32.416Z,53.28
2024-01-16T18:24:01.562Z,53.45
2024-01-16T18:26:31.088Z,52.97
2024-01-16T18:29:00.169Z,53.45
2024-01-16T18:31:31.212Z,53.21
2024-01-16T18:34:00.390Z,53.11
2024-01-16T18:36:39.348Z,53.78
2024-01-16T18:39:13.638Z,53.60
2024-01-16T18:41:47.059Z,53.41
2024-01-16T18:44:17.455Z,53.33
2024-01-16T18:46:52.557Z,53.65
2024-01-16T18:49:22.217Z,53.06
2024-01-16T18:51:51.674Z,53.35
2024-01-16T18:54:21.333Z,53.79
2024-01-16T18:57:44.748Z,53.28
2024-01-16T19:00:16.420Z,53.04
2024-01-16T19:02:49.170Z,53.05
2024-01-16T19:05:19.016Z,53.27
2024-01-16T19:07:49.260Z,53.19
2024-01-16T19:10:18.695Z,52.87
2024-01-16T19:12:48.456Z,53.18
2024-01-16T19:15:19.924Z,53.09
2024-01-16T19:17:52.114Z,53.27
2024-01-16T19:20:34.090Z,52.83
2024-01-16T19:23:06.476Z,52.97
2024-01-16T19:29:29.668Z,52.83
2024-01-16T19:32:04.425Z,52.78
2024-01-16T19:34:37.894Z,53.35
2024-01-16T19:37:08.829Z,53.48
2024-01-16T19:39:52.840Z,52.90
2024-01-16T19:42:22.328Z,53.11
2024-01-16T19:45:10.819Z,52.85
2024-01-16T19:47:43.956Z,52.76
2024-01-16T19:50:22.863Z,53.21
2024-01-16T19:52:59.409Z,53.10
2024-01-16T19:55:30.700Z,52.95
2024-01-16T19:58:00.497Z,53.17
2024-01-16T20:00:33.122Z,53.15
2024-01-16T20:03:08.810Z,53.15
2024-01-16T20:05:44.015Z,53.33
2024-01-16T20:08:13.728Z,53.04
2024-01-16T20:10:42.983Z,53.59
2024-01-16T20:13:17.099Z,53.10
2024-01-16T20:15:50.083Z,53.08
2024-01-16T20:18:26.014Z,53.12
2024-01-16T20:20:56.987Z,53.08
2024-01-16T20:23:28.109Z,52.88
2024-01-16T20:25:57.402Z,52.98
2024-01-16T20:28:26.951Z,53.23
2024-01-16T20:30:58.101Z,52.89
2024-01-16T20:33:32.103Z,53.10
2024-01-16T20:36:02.839Z,53.22
2024-01-16T20:38:34.000Z,52.85
2024-01-16T20:41:03.023Z,52.93
2024-01-16T20:43:32.435Z,52.95
2024-01-16T20:46:02.228Z,52.83
2024-01-16T20:48:34.118Z,52.80
2024-01-16T20:51:05.644Z,53.24
2024-01-16T20:53:35.253Z,52.86
2024-01-16T20:56:10.744Z,53.17
2024-01-16T20:58:40.352Z,53.63
2024-01-16T21:01:09.681Z,53.36
2024-01-16T21:03:39.219Z,53.20
2024-01-16T21:06:10.717Z,53.40
2024-01-16T21:08:40.522Z,53.07
2024-01-16T21:11:09.548Z,53.33
2024-01-16T21:13:38.849Z,52.82
2024-01-16T21:16:07.869Z,53.09
2024-01-16T21:18:39.234Z,53.31
2024-01-16T21:21:10.273Z,53.18
2024-01-16T21:23:39.685Z,53.16
2024-01-16T21:26:09.318Z,53.36
2024-01-16T21:28:38.755Z,53.23
2024-01-16T21:31:08.024Z,52.79
2024-01-16T21:33:37.678Z,53.19
2024-01-16T21:36:06.879Z,52.82
2024-01-16T21:38:37.481Z,52.82
2024-01-16T21:41:08.171Z,53.48
2024-01-16T21:43:37.677Z,53.33
2024-01-16T21:46:06.616Z,53.44
2024-01-16T21:48:36.300Z,53.03
2024-01-16T21:51:06.141Z,53.38
2024-01-16T21:53:37.415Z,53.40
2024-01-16T21:56:09.383Z,53.20
2024-01-16T21:58:38.670Z,53.19
2024-01-16T22:01:08.052Z,53.15
2024-01-16T22:03:38.020Z,53.29
2024-01-16T22:06:07.212Z,53.15
2024-01-16T22:08:36.686Z,53.20
2024-01-16T22:11:07.098Z,53.36
2024-01-16T22:13:36.393Z,53.54
2024-01-16T22:16:06.678Z,53.22
2024-01-16T22:18:50.853Z,53.19
2024-01-16T22:21:35.438Z,53.25
2024-01-16T22:24:05.513Z,53.43
2024-01-16T22:26:35.939Z,53.31
2024-01-16T22:29:05.239Z,53.34
2024-01-16T22:31:34.230Z,53.59
2024-01-16T22:34:03.612Z,53.22
2024-01-16T22:36:32.750Z,53.27
2024-01-16T22:39:02.797Z,53.33
2024-01-16T22:41:33.696Z,53.45
2024-01-16T22:44:04.424Z,53.66
2024-01-16T22:46:33.322Z,53.37
2024-01-16T22:49:03.870Z,53.64
2024-01-16T22:51:35.742Z,53.29
2024-01-16T22:54:06.090Z,53.64
2024-01-16T22:56:35.153Z,53.36
2024-01-16T22:59:06.306Z,53.29
2024-01-16T23:01:35.428Z,53.71
2024-01-16T23:04:04.744Z,53.40
2024-01-16T23:06:33.763Z,53.63
2024-01-16T23:09:03.279Z,53.80
2024-01-16T23:11:32.304Z,53.67
2024-01-16T23:14:03.026Z,53.87
2024-01-16T23:16:33.727Z,53.75
2024-01-16T23:19:03.112Z,53.51
2024-01-16T23:21:32.269Z,53.85
2024-01-16T23:24:01.682Z,53.67
2024-01-16T23:26:31.071Z,53.47
2024-01-16T23:29:00.583Z,53.91
2024-01-16T23:31:29.504Z,54.04
2024-01-16T23:34:00.291Z,53.83
2024-01-16T23:36:31.330Z,54.01
2024-01-16T23:39:00.855Z,53.62
2024-01-16T23:41:31.598Z,53.51
2024-01-16T23:44:01.829Z,54.00
2024-01-16T23:46:30.757Z,54.01
2024-01-16T23:49:02.293Z,53.82
2024-01-16T23:51:32.384Z,53.92
2024-01-16T23:54:03.657Z,53.75
2024-01-16T23:56:33.057Z,53.90
2024-01-16T23:59:02.285Z,53.89
